Time;durP1;ratioP1;P1;durP2;ratioP2;P2;SDS_P1;SDS_P2;PMS_P1;PMS_P2;Temp;Humidity;BMP_temperature;BMP_pressure;BME280_temperature;BME280_humidity;BME280_pressure;Samples;Min_cycle;Max_cycle;Signal;HPM_P1;HPM_P2
2022/08/12 00:43:28;;;;;;;2.45;2.05;;;23.90;42.30;;;;;;5022366;28;20026;-86
2022/08/12 00:48:41;;;;;;;2.08;1.92;;;23.80;42.50;;;;;;5047817;28;20088;-86
2022/08/12 00:51:08;;;;;;;3.72;2.22;;;23.70;42.40;;;;;;5048214;28;20045;-87
2022/08/12 00:53:35;;;;;;;2.50;1.92;;;23.70;42.50;;;;;;5047670;28;20588;-84
2022/08/12 00:56:03;;;;;;;1.92;1.83;;;23.60;42.50;;;;;;5049621;28;20065;-88
2022/08/12 00:58:31;;;;;;;2.30;2.10;;;23.60;42.60;;;;;;5041734;28;20057;-86
2022/08/12 01:01:04;;;;;;;2.20;2.00;;;23.60;42.80;;;;;;5036632;28;20053;-86
2022/08/12 01:11:52;;;;;;;4.85;2.47;;;23.40;42.80;;;;;;5025938;28;20026;-86
2022/08/12 01:14:23;;;;;;;2.00;1.80;;;23.40;42.90;;;;;;5029912;28;20030;-86
2022/08/12 01:16:51;;;;;;;8.85;2.75;;;23.30;42.90;;;;;;5033344;28;20045;-86
2022/08/12 01:19:21;;;;;;;3.13;2.17;;;23.30;43.00;;;;;;5009551;28;20029;-86
2022/08/12 01:22:13;;;;;;;2.60;2.40;;;23.20;42.90;;;;;;5029072;28;20447;-88
2022/08/12 01:24:53;;;;;;;4.45;2.50;;;23.20;43.80;;;;;;5024746;28;20029;-87
2022/08/12 01:27:21;;;;;;;3.53;3.22;;;23.20;43.20;;;;;;5023584;28;20117;-86
2022/08/12 01:29:50;;;;;;;2.78;2.45;;;23.10;43.10;;;;;;5024674;28;20043;-88
2022/08/12 01:32:19;;;;;;;2.88;2.40;;;23.10;43.20;;;;;;4995702;28;20064;-86
2022/08/12 01:35:06;;;;;;;2.47;2.28;;;23.10;43.40;;;;;;5025014;28;20030;-86
2022/08/12 01:38:04;;;;;;;2.80;2.40;;;23.00;43.40;;;;;;5024470;28;20033;-86
2022/08/12 01:40:33;;;;;;;3.22;2.03;;;23.00;43.50;;;;;;5017623;28;20046;-87
2022/08/12 01:43:04;;;;;;;3.10;2.47;;;22.90;43.40;;;;;;5009044;28;20025;-87
2022/08/12 01:45:33;;;;;;;3.30;2.80;;;22.90;43.50;;;;;;5025342;28;20030;-90
2022/08/12 01:48:14;;;;;;;2.67;2.47;;;22.90;43.60;;;;;;5033365;28;20025;-86
2022/08/12 01:50:53;;;;;;;3.00;2.70;;;22.80;43.60;;;;;;5023234;28;20041;-86
2022/08/12 01:53:24;;;;;;;4.35;2.92;;;22.80;43.60;;;;;;5023005;28;20045;-87
2022/08/12 01:55:53;;;;;;;2.60;2.38;;;22.80;43.80;;;;;;5010336;28;20037;-86
2022/08/12 01:58:27;;;;;;;2.92;2.63;;;22.70;43.70;;;;;;5013491;28;20041;-87
2022/08/12 02:01:03;;;;;;;2.35;2.00;;;22.70;43.90;;;;;;5001390;28;20476;-88
2022/08/12 02:13:20;;;;;;;3.47;2.85;;;22.60;44.20;;;;;;5024577;28;20030;-87
2022/08/12 02:15:55;;;;;;;3.35;2.42;;;22.50;44.00;;;;;;5016705;28;20025;-85
2022/08/12 02:18:52;;;;;;;3.10;2.80;;;22.50;44.10;;;;;;5027127;28;20099;-89
2022/08/12 02:21:40;;;;;;;4.35;2.60;;;22.40;44.20;;;;;;5026236;28;20036;-88
2022/08/12 02:24:12;;;;;;;3.88;2.85;;;22.30;44.10;;;;;;5020969;28;20021;-88
2022/08/12 02:26:41;;;;;;;2.70;2.33;;;22.30;44.20;;;;;;5023481;28;20029;-86
2022/08/12 02:29:08;;;;;;;2.95;2.67;;;22.30;44.30;;;;;;5013933;28;20029;-86
2022/08/12 02:31:35;;;;;;;5.05;2.95;;;22.30;44.40;;;;;;5022953;28;20507;-88
2022/08/12 02:34:01;;;;;;;2.83;2.08;;;22.20;44.40;;;;;;5013274;28;20022;-88
2022/08/12 02:36:30;;;;;;;2.85;2.22;;;22.20;44.50;;;;;;5029326;28;20028;-89
2022/08/12 02:38:56;;;;;;;3.17;2.20;;;22.20;44.70;;;;;;5032310;28;20040;-88
2022/08/12 02:41:25;;;;;;;2.72;2.47;;;22.10;44.50;;;;;;5000936;28;20384;-88
2022/08/12 02:43:54;;;;;;;3.15;2.63;;;22.10;44.70;;;;;;5024540;28;20051;-86
2022/08/12 02:46:27;;;;;;;3.53;2.65;;;22.00;44.60;;;;;;5025448;28;20048;-86
2022/08/12 02:49:13;;;;;;;4.80;2.90;;;22.00;44.80;;;;;;5017212;28;20563;-86
2022/08/12 02:51:45;;;;;;;3.38;2.60;;;22.00;44.90;;;;;;5016448;28;20084;-86
2022/08/12 02:54:11;;;;;;;2.88;2.60;;;22.00;44.90;;;;;;5040038;28;20025;-86
2022/08/12 02:56:40;;;;;;;3.60;3.10;;;22.00;45.10;;;;;;5007792;28;20132;-88
2022/08/12 02:59:15;;;;;;;3.47;3.17;;;21.90;45.00;;;;;;5035387;28;20237;-87
2022/08/12 03:01:48;;;;;;;2.78;2.58;;;21.80;45.00;;;;;;5033502;28;20040;-84
2022/08/12 03:04:37;;;;;;;4.47;2.50;;;21.80;45.00;;;;;;5017595;28;20144;-85
2022/08/12 03:07:13;;;;;;;3.33;2.80;;;21.80;45.20;;;;;;5036109;28;20094;-86
2022/08/12 03:10:10;;;;;;;3.05;2.75;;;21.70;45.10;;;;;;5021164;28;20052;-86
2022/08/12 03:12:42;;;;;;;3.75;2.85;;;21.70;45.30;;;;;;4994706;28;20107;-88
2022/08/12 03:15:14;;;;;;;3.08;2.88;;;21.60;45.00;;;;;;5019190;28;20033;-90
2022/08/12 03:17:43;;;;;;;4.57;2.58;;;21.60;45.20;;;;;;5024037;28;20083;-87
2022/08/12 03:20:13;;;;;;;2.90;2.63;;;21.60;45.30;;;;;;5039918;28;20087;-87
2022/08/12 03:22:41;;;;;;;6.35;2.78;;;21.60;45.40;;;;;;5021455;28;20540;-89
2022/08/12 03:25:14;;;;;;;4.25;2.80;;;21.60;45.50;;;;;;5021478;28;20625;-88
2022/08/12 03:27:48;;;;;;;3.40;2.70;;;21.50;45.50;;;;;;5020046;28;20086;-89
2022/08/12 03:30:18;;;;;;;3.40;2.65;;;21.50;45.60;;;;;;5036916;28;20681;-88
2022/08/12 03:32:47;;;;;;;3.70;3.35;;;21.40;45.50;;;;;;5034956;28;20036;-87
2022/08/12 03:35:23;;;;;;;3.20;2.90;;;21.40;45.60;;;;;;5027481;28;20032;-88
2022/08/12 03:37:50;;;;;;;3.80;3.25;;;21.40;45.70;;;;;;5015251;28;20136;-89
2022/08/12 04:02:25;;;;;;;3.92;3.25;;;21.10;45.90;;;;;;5025984;28;20037;-85
2022/08/12 04:04:51;;;;;;;3.45;3.08;;;21.10;46.00;;;;;;5035275;28;20026;-84
2022/08/12 04:07:17;;;;;;;3.58;3.28;;;21.00;45.90;;;;;;5028666;28;20036;-85
2022/08/12 04:09:45;;;;;;;3.60;2.75;;;21.00;46.10;;;;;;4999273;28;20067;-85
2022/08/12 04:14:57;;;;;;;3.25;2.95;;;20.90;46.10;;;;;;5037658;28;20032;-86
2022/08/12 04:17:26;;;;;;;3.92;2.97;;;20.90;46.20;;;;;;5022604;28;20064;-86
2022/08/12 04:19:55;;;;;;;3.70;3.10;;;20.90;46.30;;;;;;5009593;28;20094;-88
2022/08/12 04:22:24;;;;;;;3.63;2.90;;;20.90;46.40;;;;;;5010178;28;20176;-86
2022/08/12 04:24:52;;;;;;;4.38;3.75;;;20.80;46.30;;;;;;4995233;28;20029;-89
2022/08/12 04:27:18;;;;;;;2.90;2.70;;;20.80;47.00;;;;;;5036695;28;20053;-89
2022/08/12 04:29:44;;;;;;;3.55;3.05;;;20.80;46.50;;;;;;5017489;28;20037;-88
2022/08/12 04:32:11;;;;;;;4.03;3.05;;;20.70;46.40;;;;;;5015510;28;20033;-87
2022/08/12 04:34:37;;;;;;;3.83;3.50;;;20.70;46.50;;;;;;5017348;28;20408;-87
2022/08/12 04:37:03;;;;;;;4.57;3.75;;;20.70;46.60;;;;;;5012972;28;20083;-87
2022/08/12 04:39:30;;;;;;;4.38;3.15;;;20.70;46.70;;;;;;4977014;28;20101;-87
2022/08/12 04:41:59;;;;;;;3.58;3.10;;;20.60;46.60;;;;;;5028912;28;20033;-88
2022/08/12 04:44:26;;;;;;;4.35;3.40;;;20.60;46.60;;;;;;5013878;28;20586;-86
2022/08/12 04:46:53;;;;;;;3.90;3.60;;;20.60;46.70;;;;;;4994558;28;20030;-88
2022/08/12 04:49:21;;;;;;;3.83;3.10;;;20.60;46.80;;;;;;5021641;28;20082;-84
2022/08/12 04:51:47;;;;;;;3.70;3.17;;;20.60;46.90;;;;;;5027189;28;20033;-86
2022/08/12 04:54:14;;;;;;;4.47;2.65;;;20.50;46.80;;;;;;5024179;28;20044;-87
2022/08/12 04:56:40;;;;;;;3.28;2.97;;;20.50;46.80;;;;;;5010451;28;20103;-86
2022/08/12 04:59:07;;;;;;;3.55;2.88;;;20.50;46.90;;;;;;5006002;28;20037;-84
2022/08/12 05:01:36;;;;;;;3.00;2.80;;;20.50;47.00;;;;;;4990238;28;20133;-87
2022/08/12 05:04:03;;;;;;;4.75;3.25;;;20.40;46.90;;;;;;5025600;28;20090;-86
2022/08/12 05:06:28;;;;;;;4.65;4.25;;;20.40;46.90;;;;;;5007566;28;20029;-85
2022/08/12 05:08:56;;;;;;;3.30;3.00;;;20.40;47.00;;;;;;5008484;28;20044;-86
2022/08/12 05:11:26;;;;;;;3.97;3.47;;;20.40;47.00;;;;;;5007548;28;20044;-85
2022/08/12 05:13:59;;;;;;;3.45;3.15;;;20.40;47.10;;;;;;5021616;28;20625;-86
2022/08/12 05:16:25;;;;;;;3.40;2.90;;;20.40;47.20;;;;;;5007101;28;20041;-86
2022/08/12 05:18:51;;;;;;;4.97;3.00;;;20.40;47.20;;;;;;4989380;28;20037;-84
2022/08/12 05:21:17;;;;;;;4.45;3.13;;;20.40;47.20;;;;;;5025059;28;20021;-85
2022/08/12 05:23:50;;;;;;;4.35;3.28;;;20.30;47.00;;;;;;5023627;28;20391;-86
2022/08/12 05:26:16;;;;;;;3.50;3.20;;;20.30;47.20;;;;;;5013374;28;20055;-86
2022/08/12 05:28:42;;;;;;;3.70;3.40;;;20.30;47.10;;;;;;4993384;28;20037;-86
2022/08/12 05:31:11;;;;;;;3.15;2.83;;;20.30;47.20;;;;;;5026461;28;20045;-87
2022/08/12 05:33:39;;;;;;;3.53;3.13;;;20.30;47.30;;;;;;5007449;28;20026;-85
2022/08/12 05:36:08;;;;;;;3.30;3.03;;;20.30;47.30;;;;;;5028708;28;20037;-92
2022/08/12 05:41:28;;;;;;;3.53;3.15;;;20.30;47.30;;;;;;5002551;28;20037;-88
2022/08/12 05:43:57;;;;;;;4.13;3.47;;;20.40;47.50;;;;;;4995087;28;20079;-95
2022/08/12 05:46:25;;;;;;;3.20;2.85;;;20.40;47.50;;;;;;5008532;28;20033;-86
2022/08/12 05:48:55;;;;;;;5.40;3.28;;;20.40;47.50;;;;;;4995909;28;20033;-91
2022/08/12 05:51:25;;;;;;;3.45;3.15;;;20.50;47.70;;;;;;5010711;28;20045;-92
2022/08/12 05:53:52;;;;;;;4.13;3.45;;;20.50;47.70;;;;;;5020988;28;20112;-90
2022/08/12 05:56:27;;;;;;;4.30;3.33;;;20.70;48.00;;;;;;4994746;28;20052;-95
2022/08/12 05:58:56;;;;;;;3.53;3.22;;;20.70;48.10;;;;;;5021783;28;20044;-88
2022/08/12 06:01:25;;;;;;;3.33;3.03;;;20.80;48.40;;;;;;5032368;28;20045;-95
2022/08/12 06:03:51;;;;;;;4.60;4.00;;;20.90;48.80;;;;;;5013626;28;20030;-89
2022/08/12 06:06:18;;;;;;;5.88;3.67;;;21.00;49.00;;;;;;5020135;28;20025;-89
2022/08/12 06:08:47;;;;;;;4.07;3.75;;;21.10;49.30;;;;;;5013024;28;20449;-93
2022/08/12 06:11:17;;;;;;;5.30;3.78;;;21.30;49.60;;;;;;5026874;28;20041;-88
2022/08/12 06:13:44;;;;;;;4.10;3.40;;;21.70;50.20;;;;;;5026047;28;20514;-87
2022/08/12 06:16:13;;;;;;;4.65;3.40;;;21.90;50.10;;;;;;5035789;28;20036;-86
2022/08/12 06:18:40;;;;;;;4.53;3.50;;;22.20;50.10;;;;;;5013577;28;20018;-89
2022/08/12 06:21:08;;;;;;;5.30;3.35;;;22.60;50.40;;;;;;5030165;28;20020;-87
2022/08/12 06:23:35;;;;;;;4.45;2.92;;;22.90;50.30;;;;;;5016255;28;20323;-89
2022/08/12 06:26:01;;;;;;;3.65;2.78;;;23.20;50.30;;;;;;5021499;28;20262;-94
2022/08/12 06:28:29;;;;;;;4.68;2.92;;;23.50;50.40;;;;;;4984305;28;20524;-86
2022/08/12 06:30:56;;;;;;;5.28;3.20;;;23.90;50.50;;;;;;5027516;28;20037;-83
2022/08/12 06:33:23;;;;;;;4.00;2.70;;;24.30;50.60;;;;;;5049583;28;20072;-90
2022/08/12 06:35:49;;;;;;;4.40;2.83;;;24.50;50.30;;;;;;5040327;28;20165;-89
2022/08/12 06:38:24;;;;;;;3.58;2.80;;;24.80;50.20;;;;;;5039438;28;20071;-89
2022/08/12 06:43:45;;;;;;;3.83;2.80;;;25.30;49.50;;;;;;5034981;28;20041;-86
2022/08/12 06:46:12;;;;;;;6.22;2.95;;;25.60;49.10;;;;;;5051130;28;20045;-95
2022/08/12 06:48:41;;;;;;;5.30;3.63;;;25.80;49.30;;;;;;5041343;28;20029;-90
2022/08/12 06:51:08;;;;;;;6.82;2.70;;;26.00;48.40;;;;;;5031656;28;20176;-92
2022/08/12 06:53:34;;;;;;;4.15;3.28;;;26.20;48.20;;;;;;5012054;28;20455;-93
2022/08/12 06:56:00;;;;;;;5.82;2.88;;;26.40;47.80;;;;;;5031211;28;20035;-89
2022/08/12 06:58:28;;;;;;;8.60;2.70;;;26.70;47.50;;;;;;5017782;28;20052;-89
2022/08/12 07:00:58;;;;;;;6.57;3.05;;;27.00;46.90;;;;;;5001319;28;20411;-87
2022/08/12 07:03:29;;;;;;;7.13;3.00;;;27.40;46.40;;;;;;5013753;28;20164;-86
2022/08/12 07:06:03;;;;;;;5.05;2.70;;;27.80;46.00;;;;;;5002007;28;20118;-86
2022/08/12 07:08:32;;;;;;;4.55;3.20;;;28.00;45.60;;;;;;5026568;28;20029;-84
2022/08/12 07:11:00;;;;;;;4.90;3.05;;;28.20;45.10;;;;;;5013744;28;20993;-86
2022/08/12 07:13:37;;;;;;;7.97;3.47;;;28.40;44.70;;;;;;5025901;28;20029;-87
2022/08/12 07:16:05;;;;;;;6.00;2.97;;;28.60;44.40;;;;;;5025296;28;20083;-86
2022/08/12 07:18:32;;;;;;;5.85;3.03;;;28.80;44.20;;;;;;5024764;28;20021;-86
2022/08/12 07:21:02;;;;;;;6.95;3.25;;;28.90;43.80;;;;;;5004731;28;20036;-86
2022/08/12 07:23:33;;;;;;;6.85;3.63;;;29.10;43.40;;;;;;5014582;28;20465;-87
2022/08/12 07:26:01;;;;;;;4.43;2.95;;;29.40;42.80;;;;;;5026935;28;20025;-87
2022/08/12 07:28:32;;;;;;;5.22;2.40;;;29.60;42.40;;;;;;5027182;28;20036;-84
2022/08/12 07:30:58;;;;;;;9.68;3.50;;;29.90;41.90;;;;;;4993842;28;20114;-86
2022/08/12 07:33:27;;;;;;;4.72;2.92;;;30.10;41.40;;;;;;5026299;28;20026;-87
2022/08/12 07:35:54;;;;;;;3.13;2.42;;;30.30;41.00;;;;;;5017416;28;20032;-85
2022/08/12 07:38:30;;;;;;;6.43;2.75;;;30.40;40.80;;;;;;4998316;28;20139;-88
2022/08/12 07:40:58;;;;;;;12.30;3.05;;;30.60;40.60;;;;;;5017046;28;20029;-88
2022/08/12 07:43:26;;;;;;;6.45;3.17;;;30.50;40.50;;;;;;5013920;28;20044;-86
2022/08/12 07:45:53;;;;;;;9.57;2.47;;;30.40;40.60;;;;;;5008426;28;20495;-83
2022/08/12 07:48:20;;;;;;;4.20;2.20;;;30.40;40.70;;;;;;5025686;28;20037;-84
2022/08/12 07:50:47;;;;;;;3.33;2.55;;;30.20;40.60;;;;;;5026664;28;20029;-85
2022/08/12 07:53:13;;;;;;;5.43;2.22;;;30.10;40.60;;;;;;5013095;28;20483;-88
2022/08/12 07:55:39;;;;;;;4.85;2.58;;;30.00;40.60;;;;;;5015819;28;20048;-91
2022/08/12 07:58:05;;;;;;;4.88;2.47;;;29.90;40.60;;;;;;5013055;28;20171;-88
2022/08/12 08:00:33;;;;;;;7.25;2.47;;;29.70;40.60;;;;;;5032277;28;20131;-89
2022/08/12 08:03:00;;;;;;;5.78;2.55;;;29.70;40.70;;;;;;5015178;28;20025;-89
2022/08/12 08:05:33;;;;;;;5.22;2.50;;;29.60;40.80;;;;;;5030577;28;20078;-86
2022/08/12 08:08:01;;;;;;;5.05;2.78;;;29.50;40.80;;;;;;5015610;28;20432;-88
2022/08/12 08:10:30;;;;;;;5.03;2.45;;;29.50;40.70;;;;;;5028700;28;20045;-86
2022/08/12 08:12:58;;;;;;;20.73;3.42;;;29.50;40.40;;;;;;5027350;28;20098;-89
2022/08/12 08:15:29;;;;;;;5.53;2.42;;;29.60;40.70;;;;;;5015242;28;20021;-90
2022/08/12 08:18:01;;;;;;;5.70;2.33;;;29.70;39.70;;;;;;5007380;28;20079;-88
2022/08/12 08:20:33;;;;;;;2.47;2.28;;;29.90;39.50;;;;;;5012581;28;20056;-90
2022/08/12 08:23:07;;;;;;;5.25;2.10;;;29.90;39.40;;;;;;5026933;28;20294;-85
2022/08/12 08:25:34;;;;;;;4.15;2.67;;;29.80;39.50;;;;;;5005695;28;20041;-86
2022/08/12 08:28:12;;;;;;;5.00;2.95;;;29.50;39.80;;;;;;5011539;28;20464;-86
2022/08/12 08:30:44;;;;;;;3.70;2.17;;;29.20;40.00;;;;;;5025804;28;20072;-85
2022/08/12 08:33:11;;;;;;;6.07;2.63;;;29.00;40.40;;;;;;4996810;28;20028;-88
2022/08/12 08:35:39;;;;;;;5.53;2.60;;;28.70;40.70;;;;;;5019530;28;20025;-87
2022/08/12 08:38:15;;;;;;;2.95;2.28;;;28.60;40.80;;;;;;5032662;28;20064;-85
2022/08/12 08:43:29;;;;;;;4.63;2.55;;;28.30;41.80;;;;;;5013995;28;20029;-86
2022/08/12 08:45:56;;;;;;;3.95;2.75;;;28.10;41.30;;;;;;4989728;28;20036;-86
2022/08/12 08:48:25;;;;;;;6.75;2.17;;;28.00;41.40;;;;;;4974140;28;20033;-86
2022/08/12 08:50:51;;;;;;;4.72;2.40;;;27.90;41.60;;;;;;5030598;28;20037;-89
2022/08/12 08:53:18;;;;;;;4.00;2.50;;;27.90;41.70;;;;;;5033902;28;20053;-91
2022/08/12 08:55:44;;;;;;;7.65;2.58;;;27.80;41.80;;;;;;5026913;28;20031;-89
2022/08/12 08:58:11;;;;;;;7.10;2.97;;;27.80;41.80;;;;;;5007104;28;20602;-90
2022/08/12 09:00:38;;;;;;;5.28;2.60;;;27.80;41.90;;;;;;4975918;28;20036;-91
2022/08/12 09:03:05;;;;;;;5.95;2.40;;;27.90;41.90;;;;;;4996118;28;20075;-91
2022/08/12 09:05:32;;;;;;;5.20;2.45;;;27.90;41.70;;;;;;4992213;28;20029;-89
2022/08/12 09:08:00;;;;;;;7.07;2.58;;;27.90;41.70;;;;;;5008961;28;20025;-88
2022/08/12 09:10:26;;;;;;;5.90;2.95;;;28.00;41.50;;;;;;5008026;28;20037;-90
2022/08/12 09:15:38;;;;;;;7.22;3.05;;;28.10;41.30;;;;;;5013023;28;20033;-92
2022/08/12 09:18:06;;;;;;;7.00;2.38;;;28.20;41.30;;;;;;4992799;28;20021;-91
2022/08/12 09:20:34;;;;;;;6.72;2.53;;;28.20;41.20;;;;;;5013591;28;20144;-87
2022/08/12 09:23:09;;;;;;;4.65;2.60;;;28.30;41.20;;;;;;5011333;28;20045;-91
2022/08/12 09:25:40;;;;;;;5.10;2.35;;;28.30;41.10;;;;;;5012107;28;20037;-90
2022/08/12 09:28:10;;;;;;;4.10;2.20;;;28.40;41.00;;;;;;5006948;28;20026;-87
2022/08/12 09:30:38;;;;;;;2.75;2.38;;;28.50;41.00;;;;;;5025039;28;20051;-88
2022/08/12 09:33:05;;;;;;;3.53;2.33;;;28.50;40.90;;;;;;4975245;28;20013;-90
2022/08/12 09:35:33;;;;;;;7.93;2.47;;;28.60;40.90;;;;;;5011199;28;20435;-85
2022/08/12 09:38:01;;;;;;;5.63;2.80;;;28.60;40.80;;;;;;5012811;28;20032;-86
2022/08/12 09:40:28;;;;;;;4.05;2.28;;;28.70;40.80;;;;;;5017155;28;20044;-86
2022/08/12 09:45:44;;;;;;;5.97;2.60;;;28.80;40.60;;;;;;5005348;28;20049;-86
2022/08/12 09:48:15;;;;;;;6.40;2.20;;;28.90;40.50;;;;;;4989581;28;20064;-89
2022/08/12 09:50:42;;;;;;;4.00;2.08;;;28.90;40.40;;;;;;5016808;28;20234;-86
2022/08/12 09:53:15;;;;;;;3.88;2.40;;;29.00;40.30;;;;;;4990383;28;20018;-87
2022/08/12 09:55:51;;;;;;;5.97;2.85;;;29.10;40.30;;;;;;5013095;28;20029;-86
2022/08/12 09:58:20;;;;;;;5.90;2.45;;;29.20;40.20;;;;;;5023605;28;20045;-87
2022/08/12 10:00:47;;;;;;;6.80;2.50;;;29.20;40.80;;;;;;5007656;28;20021;-87
2022/08/12 10:03:15;;;;;;;4.32;2.38;;;29.30;40.10;;;;;;5006068;28;20040;-88
2022/08/12 10:05:44;;;;;;;7.22;2.88;;;29.40;40.10;;;;;;5013918;28;20278;-85
2022/08/12 10:08:17;;;;;;;6.85;2.85;;;29.40;40.00;;;;;;5022690;28;20041;-90
2022/08/12 10:13:43;;;;;;;3.97;2.20;;;29.60;39.90;;;;;;5012813;28;20325;-88
2022/08/12 10:16:42;;;;;;;3.95;2.50;;;29.70;39.90;;;;;;5006842;28;20151;-89
2022/08/12 10:19:09;;;;;;;5.90;2.30;;;29.80;39.90;;;;;;4995950;28;20041;-88
2022/08/12 10:21:40;;;;;;;6.97;2.42;;;29.90;39.90;;;;;;4978510;28;20037;-85
2022/08/12 10:24:08;;;;;;;4.63;2.90;;;30.00;39.80;;;;;;5016259;28;20481;-87
2022/08/12 10:29:38;;;;;;;3.75;2.30;;;30.10;39.60;;;;;;5017825;28;20118;-88
2022/08/12 10:32:20;;;;;;;5.70;2.83;;;30.20;39.50;;;;;;4988696;28;20091;-87
2022/08/12 10:34:50;;;;;;;4.25;2.65;;;30.30;39.50;;;;;;4992542;28;20361;-92
2022/08/12 10:37:17;;;;;;;7.82;3.60;;;30.40;39.40;;;;;;5034391;28;20090;-88
2022/08/12 10:39:44;;;;;;;4.72;2.53;;;30.40;39.40;;;;;;4997673;28;20033;-89
2022/08/12 10:45:03;;;;;;;5.90;2.67;;;30.50;39.50;;;;;;5020575;28;20040;-94
2022/08/12 10:47:31;;;;;;;6.03;2.72;;;30.60;39.60;;;;;;5014787;28;20044;-89
2022/08/12 10:49:58;;;;;;;4.55;2.90;;;30.70;39.60;;;;;;5029726;28;20050;-91
2022/08/12 10:52:25;;;;;;;7.00;2.97;;;30.80;39.50;;;;;;5031266;28;20440;-90
2022/08/12 10:54:54;;;;;;;6.07;2.83;;;30.90;39.30;;;;;;5012014;28;20616;-90
2022/08/12 10:57:22;;;;;;;4.65;2.60;;;31.00;39.20;;;;;;5018994;28;20045;-87
2022/08/12 10:59:48;;;;;;;7.32;2.83;;;31.00;39.10;;;;;;5018916;28;20033;-85
2022/08/12 11:02:14;;;;;;;4.72;2.53;;;31.10;39.00;;;;;;5017325;28;20022;-85
2022/08/12 11:04:40;;;;;;;4.15;2.55;;;31.20;38.90;;;;;;5021416;28;20040;-87
2022/08/12 11:07:08;;;;;;;7.18;2.60;;;31.30;38.60;;;;;;5030169;28;20037;-84
2022/08/12 11:09:36;;;;;;;6.80;2.95;;;31.40;38.40;;;;;;5026586;28;20036;-89
2022/08/12 11:12:05;;;;;;;4.22;2.58;;;31.50;38.30;;;;;;4998012;28;20032;-86
2022/08/12 11:14:37;;;;;;;7.03;2.70;;;31.60;38.10;;;;;;5031783;28;20084;-89
2022/08/12 11:17:06;;;;;;;3.42;2.35;;;31.70;37.80;;;;;;5025137;28;20105;-87
2022/08/12 11:19:34;;;;;;;6.93;3.10;;;31.70;37.40;;;;;;4998106;28;20059;-88
2022/08/12 11:22:00;;;;;;;5.35;2.97;;;31.80;37.30;;;;;;5008429;28;20125;-85
2022/08/12 11:24:26;;;;;;;4.60;2.80;;;31.90;37.00;;;;;;5014221;28;20041;-88
2022/08/12 11:26:53;;;;;;;3.70;3.33;;;32.00;36.70;;;;;;5016168;28;20033;-88
2022/08/12 11:29:23;;;;;;;5.80;3.20;;;32.10;36.50;;;;;;4995567;28;20033;-91
2022/08/12 11:31:49;;;;;;;5.40;2.75;;;32.20;36.30;;;;;;5024929;28;20214;-89
2022/08/12 11:34:16;;;;;;;4.30;2.60;;;32.20;36.00;;;;;;5029322;28;20033;-86
2022/08/12 11:36:55;;;;;;;5.28;3.10;;;32.30;35.80;;;;;;5031236;28;20025;-90
2022/08/12 11:39:22;;;;;;;3.03;2.72;;;32.50;35.60;;;;;;5024982;28;20030;-86
2022/08/12 11:41:48;;;;;;;3.35;3.03;;;32.60;35.60;;;;;;5026027;28;20036;-84
2022/08/12 11:44:15;;;;;;;3.08;2.53;;;32.70;35.60;;;;;;5023544;28;20030;-88
2022/08/12 11:46:41;;;;;;;2.97;2.33;;;32.80;35.60;;;;;;4975111;28;20042;-88
2022/08/12 11:49:08;;;;;;;3.63;2.72;;;32.90;35.60;;;;;;5007048;28;20477;-88
2022/08/12 11:51:35;;;;;;;4.53;3.22;;;33.10;35.60;;;;;;4992492;28;20040;-87
2022/08/12 11:54:01;;;;;;;4.78;2.95;;;33.10;35.30;;;;;;4974176;28;20252;-86
2022/08/12 11:56:27;;;;;;;2.85;2.35;;;33.20;35.20;;;;;;5011828;28;20042;-87
2022/08/12 11:58:53;;;;;;;4.68;2.80;;;33.40;35.20;;;;;;4976374;28;20045;-86
2022/08/12 12:01:19;;;;;;;3.17;2.53;;;33.40;35.10;;;;;;5011805;28;20045;-85
2022/08/12 12:03:45;;;;;;;4.50;2.50;;;33.60;35.10;;;;;;5000536;28;20014;-92
2022/08/12 12:06:11;;;;;;;2.83;2.45;;;33.70;35.70;;;;;;5015119;28;20041;-88
2022/08/12 12:08:37;;;;;;;6.82;2.92;;;33.80;34.90;;;;;;4996514;28;20025;-87
2022/08/12 12:11:03;;;;;;;4.32;3.03;;;33.90;34.80;;;;;;4999625;28;20279;-87
2022/08/12 12:13:29;;;;;;;4.30;2.95;;;33.90;34.60;;;;;;4997112;28;20040;-89
2022/08/12 12:15:54;;;;;;;3.70;2.50;;;34.10;34.50;;;;;;4999505;28;20133;-88
2022/08/12 12:18:25;;;;;;;4.95;3.13;;;34.10;34.20;;;;;;4974492;28;20029;-88
2022/08/12 12:20:54;;;;;;;6.10;2.70;;;34.20;34.10;;;;;;5010028;28;20076;-87
2022/08/12 12:23:20;;;;;;;3.72;3.08;;;34.30;34.00;;;;;;5008578;28;20033;-87
2022/08/12 12:25:46;;;;;;;3.13;2.83;;;34.30;34.00;;;;;;5012593;28;20411;-84
2022/08/12 12:28:13;;;;;;;4.30;3.40;;;34.40;33.90;;;;;;4990572;28;20064;-86
2022/08/12 12:30:39;;;;;;;4.20;3.65;;;34.50;33.60;;;;;;5002668;28;20041;-89
2022/08/12 12:33:07;;;;;;;6.35;3.78;;;34.50;33.10;;;;;;4994267;28;20022;-88
2022/08/12 12:35:34;;;;;;;4.43;3.20;;;34.50;32.90;;;;;;5015226;28;20029;-86
2022/08/12 12:38:08;;;;;;;5.07;3.40;;;34.40;32.90;;;;;;5006443;28;20033;-87
2022/08/12 12:40:36;;;;;;;5.28;3.17;;;34.40;33.30;;;;;;5008510;28;20033;-85
2022/08/12 12:43:02;;;;;;;7.82;3.35;;;34.40;32.90;;;;;;5008934;28;20037;-85
2022/08/12 12:45:31;;;;;;;4.07;3.38;;;34.40;32.70;;;;;;5012041;28;20037;-86
2022/08/12 12:48:04;;;;;;;3.50;2.88;;;34.40;32.50;;;;;;4991693;28;20025;-87
2022/08/12 12:50:38;;;;;;;5.28;3.58;;;34.40;32.40;;;;;;5023687;28;20052;-85
2022/08/12 12:53:06;;;;;;;4.82;3.28;;;34.40;32.20;;;;;;4995141;28;20116;-86
2022/08/12 12:55:36;;;;;;;8.10;3.20;;;34.50;32.10;;;;;;5024420;28;20133;-86
2022/08/12 12:58:10;;;;;;;4.88;3.10;;;34.50;32.60;;;;;;4971362;28;20042;-85
2022/08/12 13:00:43;;;;;;;6.47;2.70;;;34.60;32.00;;;;;;5002961;28;20028;-88
2022/08/12 13:03:11;;;;;;;3.33;2.72;;;34.60;32.00;;;;;;5004101;28;20034;-83
2022/08/12 13:05:41;;;;;;;3.30;3.00;;;34.70;32.00;;;;;;5002045;28;20048;-85
2022/08/12 13:08:25;;;;;;;3.75;2.95;;;34.80;31.90;;;;;;5002570;28;20108;-83
2022/08/12 13:10:53;;;;;;;4.28;3.03;;;34.80;31.60;;;;;;5017974;28;20038;-84
2022/08/12 13:13:20;;;;;;;5.07;2.97;;;34.90;31.70;;;;;;4985215;28;20026;-83
2022/08/12 13:15:48;;;;;;;4.40;3.28;;;35.00;31.60;;;;;;4986050;28;20476;-83
2022/08/12 13:18:16;;;;;;;4.93;3.15;;;35.10;31.90;;;;;;4998700;28;20103;-83
2022/08/12 13:20:43;;;;;;;3.13;2.80;;;35.10;31.00;;;;;;5003506;28;20038;-84
2022/08/12 13:23:11;;;;;;;4.70;2.70;;;35.20;30.80;;;;;;4986422;28;20033;-85
2022/08/12 13:25:40;;;;;;;3.28;2.40;;;35.30;30.60;;;;;;5001786;28;20092;-88
2022/08/12 13:28:10;;;;;;;3.25;2.50;;;35.30;30.50;;;;;;5003541;28;20022;-86
2022/08/12 13:30:36;;;;;;;2.65;2.22;;;35.40;30.40;;;;;;4987020;28;20036;-87
2022/08/12 13:33:02;;;;;;;4.60;2.65;;;35.50;30.40;;;;;;5002196;28;20018;-85
2022/08/12 13:35:32;;;;;;;5.97;2.88;;;35.60;30.50;;;;;;5003526;28;20219;-86
2022/08/12 13:37:59;;;;;;;6.10;2.78;;;35.70;30.40;;;;;;4986298;28;20153;-82
2022/08/12 13:40:29;;;;;;;5.32;2.95;;;35.80;30.50;;;;;;5002970;28;20350;-83
2022/08/12 13:43:00;;;;;;;3.33;2.92;;;35.90;30.50;;;;;;5018657;28;20033;-83
2022/08/12 13:45:29;;;;;;;5.38;2.38;;;36.10;30.60;;;;;;5002609;28;20030;-84
2022/08/12 13:48:01;;;;;;;3.10;2.67;;;36.20;30.50;;;;;;5003622;28;20025;-84
2022/08/12 13:50:32;;;;;;;7.13;3.08;;;36.30;30.40;;;;;;5004690;28;20042;-86
2022/08/12 13:53:00;;;;;;;5.30;2.70;;;36.50;30.30;;;;;;5002524;28;20568;-88
2022/08/12 13:55:27;;;;;;;5.50;2.78;;;36.60;30.30;;;;;;5019218;28;20037;-88
2022/08/12 13:57:53;;;;;;;6.18;2.83;;;36.70;30.20;;;;;;5001851;28;20080;-88
2022/08/12 14:00:21;;;;;;;3.90;2.78;;;36.80;30.10;;;;;;4986385;28;20033;-90
2022/08/12 14:02:47;;;;;;;3.88;3.25;;;36.90;30.00;;;;;;5003769;28;20033;-90
2022/08/12 14:05:13;;;;;;;7.43;2.88;;;37.00;29.80;;;;;;5001351;28;20095;-83
2022/08/12 14:08:04;;;;;;;2.97;2.70;;;37.00;29.70;;;;;;5002460;28;20042;-85
2022/08/12 14:10:37;;;;;;;5.18;2.58;;;37.20;29.70;;;;;;5001059;28;20531;-86
2022/08/12 14:13:08;;;;;;;4.60;2.85;;;37.30;29.60;;;;;;4985121;28;20091;-83
2022/08/12 14:15:37;;;;;;;3.67;2.92;;;37.40;29.40;;;;;;5002194;28;20030;-84
2022/08/12 14:18:07;;;;;;;4.07;2.72;;;37.60;29.50;;;;;;5001878;28;20046;-86
2022/08/12 14:20:33;;;;;;;2.95;2.65;;;37.70;29.30;;;;;;5005382;28;20038;-82
2022/08/12 14:22:59;;;;;;;4.53;2.50;;;37.80;29.30;;;;;;4990369;28;20208;-92
2022/08/12 14:25:29;;;;;;;3.30;2.92;;;38.00;29.30;;;;;;5006943;28;20111;-90
2022/08/12 14:28:11;;;;;;;4.03;2.70;;;38.10;29.10;;;;;;5019982;28;20026;-89
2022/08/12 14:30:59;;;;;;;4.63;3.13;;;38.20;28.80;;;;;;4992207;28;20050;-83
2022/08/12 14:33:33;;;;;;;4.10;2.63;;;38.20;28.60;;;;;;5005062;28;20029;-85
2022/08/12 14:36:10;;;;;;;5.97;2.88;;;38.30;28.70;;;;;;5006085;28;20038;-84
2022/08/12 14:38:39;;;;;;;10.32;3.10;;;38.40;28.60;;;;;;5005669;28;20034;-85
2022/08/12 14:41:08;;;;;;;6.65;2.88;;;38.40;28.40;;;;;;5006322;28;20302;-83
2022/08/12 14:43:38;;;;;;;5.70;2.55;;;38.50;28.30;;;;;;5007293;28;20029;-84
2022/08/12 14:46:17;;;;;;;5.22;3.13;;;38.50;28.20;;;;;;5005685;28;20026;-85
2022/08/12 14:48:49;;;;;;;3.65;3.22;;;38.50;28.20;;;;;;4971380;28;20611;-84